createdAt,value
2017-04-20T00:00:11.925Z,733.1
2017-04-20T00:01:11.898Z,733.05
2017-04-20T00:02:11.871Z,733.05
2017-04-20T00:03:11.842Z,733.06
2017-04-20T00:04:11.814Z,733.11
2017-04-20T00:05:11.788Z,733.06
2017-04-20T00:06:11.759Z,733.05
2017-04-20T00:07:11.734Z,733.13
2017-04-20T00:08:11.704Z,733.1
2017-04-20T00:09:11.678Z,733.07
2017-04-20T00:10:11.650Z,733.06
2017-04-20T00:11:11.622Z,732.98
2017-04-20T00:12:11.596Z,733.04
2017-04-20T00:13:11.569Z,733
2017-04-20T00:14:11.542Z,733.07
2017-04-20T00:15:11.514Z,733.04
2017-04-20T00:16:11.487Z,733.04
2017-04-20T00:17:11.460Z,733.02
2017-04-20T00:18:11.435Z,733.06
2017-04-20T00:19:11.407Z,733.09
2017-04-20T00:20:11.380Z,733.01
2017-04-20T00:21:11.354Z,732.99
2017-04-20T00:22:11.326Z,733.01
2017-04-20T00:23:11.299Z,733
2017-04-20T00:24:11.272Z,733.01
2017-04-20T00:25:11.247Z,732.97
2017-04-20T00:26:11.219Z,732.96
2017-04-20T00:27:11.193Z,732.9
2017-04-20T00:28:11.168Z,732.94
2017-04-20T00:29:11.142Z,732.93
2017-04-20T00:30:11.111Z,732.92
2017-04-20T00:31:11.086Z,732.9
2017-04-20T00:32:11.058Z,732.96
2017-04-20T00:33:11.031Z,732.95
2017-04-20T00:34:11.005Z,732.96
2017-04-20T00:35:10.977Z,732.94
2017-04-20T00:36:10.952Z,733.03
2017-04-20T00:37:10.924Z,732.95
2017-04-20T00:38:10.898Z,732.88
2017-04-20T00:39:10.872Z,732.99
2017-04-20T00:40:10.848Z,732.96
2017-04-20T00:41:10.818Z,732.94
2017-04-20T00:42:10.792Z,732.92
2017-04-20T00:43:10.765Z,732.98
2017-04-20T00:44:10.739Z,732.92
2017-04-20T00:45:10.712Z,732.94
2017-04-20T00:46:10.686Z,732.98
2017-04-20T00:47:10.660Z,732.91
2017-04-20T00:48:10.634Z,732.93
2017-04-20T00:49:10.605Z,732.98
2017-04-20T00:50:10.581Z,732.86
2017-04-20T00:51:10.555Z,732.86
2017-04-20T00:52:10.528Z,732.93
2017-04-20T00:53:10.503Z,732.85
2017-04-20T00:54:10.475Z,732.9
2017-04-20T00:55:10.447Z,732.85
2017-04-20T00:56:10.422Z,732.84
2017-04-20T00:57:10.395Z,732.85
2017-04-20T00:58:10.370Z,732.88
2017-04-20T00:59:10.342Z,732.87
2017-04-20T01:00:10.317Z,732.84
2017-04-20T01:01:10.290Z,732.85
2017-04-20T01:02:10.264Z,732.93
2017-04-20T01:03:10.237Z,732.88
2017-04-20T01:04:10.211Z,732.89
2017-04-20T01:05:10.186Z,732.86
2017-04-20T01:06:10.159Z,732.88
2017-04-20T01:07:10.133Z,732.83
2017-04-20T01:08:10.106Z,732.85
2017-04-20T01:09:10.082Z,732.85
2017-04-20T01:10:10.054Z,732.91
2017-04-20T01:11:10.029Z,732.77
2017-04-20T01:12:10.005Z,732.89
2017-04-20T01:13:09.977Z,732.87
2017-04-20T01:14:09.952Z,732.9
2017-04-20T01:15:09.925Z,732.84
2017-04-20T01:16:09.899Z,732.86
2017-04-20T01:17:09.874Z,732.87
2017-04-20T01:18:09.849Z,732.86
2017-04-20T01:19:09.823Z,732.86
2017-04-20T01:20:09.798Z,732.86
2017-04-20T01:21:09.770Z,732.79
2017-04-20T01:22:09.746Z,732.81
2017-04-20T01:23:09.720Z,732.82
2017-04-20T01:24:09.693Z,732.82
2017-04-20T01:25:09.668Z,732.72
2017-04-20T01:26:09.642Z,732.78
2017-04-20T01:27:09.616Z,732.77
2017-04-20T01:28:09.592Z,732.83
2017-04-20T01:29:09.564Z,732.81
2017-04-20T01:30:09.540Z,732.78
2017-04-20T01:31:09.515Z,732.81
2017-04-20T01:32:09.487Z,732.86
2017-04-20T01:33:09.462Z,732.83
2017-04-20T01:34:09.437Z,732.82
2017-04-20T01:35:09.410Z,732.77
2017-04-20T01:36:09.386Z,732.8
2017-04-20T01:37:09.360Z,732.83
2017-04-20T01:38:09.338Z,732.85
2017-04-20T01:39:09.307Z,732.84
2017-04-20T01:40:09.282Z,732.81
2017-04-20T01:41:09.257Z,732.83
2017-04-20T01:42:09.232Z,732.8
2017-04-20T01:43:09.207Z,732.78
2017-04-20T01:44:09.181Z,732.82
2017-04-20T01:45:09.155Z,732.8
2017-04-20T01:46:09.130Z,732.83
2017-04-20T01:47:09.103Z,732.84
2017-04-20T01:48:09.079Z,732.82
2017-04-20T01:49:09.054Z,732.82
2017-04-20T01:50:09.027Z,732.79
2017-04-20T01:51:09.002Z,732.81
2017-04-20T01:52:08.977Z,732.79
2017-04-20T01:53:08.950Z,732.8
2017-04-20T01:54:08.925Z,732.79
2017-04-20T01:55:08.899Z,732.79
2017-04-20T01:56:08.874Z,732.75
2017-04-20T01:57:08.847Z,732.76
2017-04-20T01:58:08.820Z,732.79
2017-04-20T01:59:08.796Z,732.82
2017-04-20T02:00:08.770Z,732.71
2017-04-20T02:01:08.744Z,732.72
2017-04-20T02:02:08.721Z,732.79
2017-04-20T02:03:08.691Z,732.81
2017-04-20T02:04:08.667Z,732.8
2017-04-20T02:05:08.640Z,732.74
2017-04-20T02:06:08.615Z,732.81
2017-04-20T02:07:08.587Z,732.77
2017-04-20T02:08:08.561Z,732.79
2017-04-20T02:09:08.537Z,732.86
2017-04-20T02:10:08.511Z,732.69
2017-04-20T02:11:08.484Z,732.74
2017-04-20T02:12:08.459Z,732.73
2017-04-20T02:13:08.434Z,732.74
2017-04-20T02:14:08.408Z,732.76
2017-04-20T02:15:08.381Z,732.71
2017-04-20T02:16:08.356Z,732.75
2017-04-20T02:17:08.330Z,732.62
2017-04-20T02:18:08.305Z,732.69
2017-04-20T02:19:08.277Z,732.67
2017-04-20T02:20:08.252Z,732.63
2017-04-20T02:21:08.225Z,732.67
2017-04-20T02:22:08.201Z,732.64
2017-04-20T02:23:08.173Z,732.62
2017-04-20T02:24:08.171Z,732.62
2017-04-20T02:25:08.123Z,732.66
2017-04-20T02:26:08.098Z,732.73
2017-04-20T02:27:08.071Z,732.74
2017-04-20T02:28:08.044Z,732.73
2017-04-20T02:29:08.019Z,732.64
2017-04-20T02:30:07.992Z,732.77
2017-04-20T02:31:07.966Z,732.72
2017-04-20T02:32:07.944Z,732.71
2017-04-20T02:33:07.915Z,732.82
2017-04-20T02:34:07.887Z,732.73
2017-04-20T02:35:07.859Z,732.71
2017-04-20T02:36:07.833Z,732.79
2017-04-20T02:37:07.807Z,732.77
2017-04-20T02:38:07.779Z,732.79
2017-04-20T02:39:07.753Z,732.73
2017-04-20T02:40:07.726Z,732.71
2017-04-20T02:41:07.699Z,732.65
2017-04-20T02:42:07.673Z,732.73
2017-04-20T02:43:07.647Z,732.75
2017-04-20T02:44:07.623Z,732.67
2017-04-20T02:45:07.594Z,732.8
2017-04-20T02:46:07.568Z,732.68
2017-04-20T02:47:07.559Z,732.73
2017-04-20T02:48:07.515Z,732.81
2017-04-20T02:49:07.486Z,732.73
2017-04-20T02:50:07.460Z,732.64
2017-04-20T02:51:07.433Z,732.79
2017-04-20T02:52:07.406Z,732.75
2017-04-20T02:53:07.379Z,732.82
2017-04-20T02:54:07.353Z,732.71
2017-04-20T02:55:07.325Z,732.79
2017-04-20T02:56:07.299Z,732.86
2017-04-20T02:57:07.273Z,732.67
2017-04-20T02:58:07.245Z,732.67
2017-04-20T02:59:07.219Z,732.77
2017-04-20T03:00:07.192Z,732.78
2017-04-20T03:01:07.165Z,732.84
2017-04-20T03:02:07.140Z,732.74
2017-04-20T03:03:07.112Z,732.65
2017-04-20T03:04:07.084Z,732.75
2017-04-20T03:05:07.060Z,732.64
2017-04-20T03:06:07.034Z,732.72
2017-04-20T03:07:07.005Z,732.79
2017-04-20T03:08:06.977Z,732.85
2017-04-20T03:09:06.952Z,732.79
2017-04-20T03:10:06.924Z,732.78
2017-04-20T03:11:06.897Z,732.72
2017-04-20T03:12:06.871Z,732.77
2017-04-20T03:13:06.845Z,732.77
2017-04-20T03:14:06.817Z,732.71
2017-04-20T03:15:06.791Z,732.8
2017-04-20T03:16:06.762Z,732.77
2017-04-20T03:17:06.737Z,732.81
2017-04-20T03:18:06.709Z,732.75
2017-04-20T03:19:06.682Z,732.74
2017-04-20T03:20:06.654Z,732.76
2017-04-20T03:21:06.629Z,732.71
2017-04-20T03:22:06.601Z,732.64
2017-04-20T03:23:06.576Z,732.71
2017-04-20T03:24:06.548Z,732.69
2017-04-20T03:25:06.519Z,732.68
2017-04-20T03:26:06.494Z,732.73
2017-04-20T03:27:06.467Z,732.85
2017-04-20T03:28:06.440Z,732.63
2017-04-20T03:29:06.412Z,732.66
2017-04-20T03:30:06.385Z,732.71
2017-04-20T03:31:06.359Z,732.79
2017-04-20T03:32:06.331Z,732.72
2017-04-20T03:33:06.305Z,732.71
2017-04-20T03:34:06.278Z,732.72
2017-04-20T03:35:06.250Z,732.72
2017-04-20T03:36:06.223Z,732.75
2017-04-20T03:37:06.197Z,732.7
2017-04-20T03:38:06.171Z,732.68
2017-04-20T03:39:06.143Z,732.76
2017-04-20T03:40:06.115Z,732.75
2017-04-20T03:41:06.089Z,732.74
2017-04-20T03:42:06.062Z,732.71
2017-04-20T03:43:06.036Z,732.81
2017-04-20T03:44:06.009Z,732.73
2017-04-20T03:45:05.983Z,732.74
2017-04-20T03:46:05.957Z,732.7
2017-04-20T03:47:05.928Z,732.74
2017-04-20T03:48:05.902Z,732.75
2017-04-20T03:49:05.877Z,732.74
2017-04-20T03:50:05.850Z,732.73
2017-04-20T03:51:05.822Z,732.74
2017-04-20T03:52:05.796Z,732.75
2017-04-20T03:53:05.770Z,732.71
2017-04-20T03:54:05.743Z,732.64
2017-04-20T03:55:05.718Z,732.67
2017-04-20T03:56:05.692Z,732.76
2017-04-20T03:57:05.664Z,732.73
2017-04-20T03:58:05.638Z,732.68
2017-04-20T03:59:05.612Z,732.61
2017-04-20T04:00:05.585Z,732.67
2017-04-20T04:01:05.560Z,732.71
2017-04-20T04:02:05.533Z,732.63
2017-04-20T04:03:05.507Z,732.67
2017-04-20T04:04:05.480Z,732.69
2017-04-20T04:05:05.455Z,732.72
2017-04-20T04:06:05.428Z,732.8
2017-04-20T04:07:05.402Z,732.79
2017-04-20T04:08:05.375Z,732.68
2017-04-20T04:09:05.348Z,732.69
2017-04-20T04:10:05.322Z,732.81
2017-04-20T04:11:05.296Z,732.82
2017-04-20T04:12:05.270Z,732.71
2017-04-20T04:13:05.242Z,732.74
2017-04-20T04:14:05.216Z,732.83
2017-04-20T04:15:05.190Z,732.8
2017-04-20T04:16:05.162Z,732.83
2017-04-20T04:17:05.137Z,732.87
2017-04-20T04:18:05.110Z,732.8
2017-04-20T04:19:05.082Z,732.8
2017-04-20T04:20:05.054Z,732.92
2017-04-20T04:21:05.029Z,732.86
2017-04-20T04:22:05.002Z,732.84
2017-04-20T04:23:04.977Z,732.86
2017-04-20T04:24:04.950Z,732.84
2017-04-20T04:25:04.922Z,732.88
2017-04-20T04:26:04.895Z,732.92
2017-04-20T04:27:04.869Z,732.86
2017-04-20T04:28:04.843Z,732.86
2017-04-20T04:29:04.817Z,732.87
2017-04-20T04:30:04.791Z,732.92
2017-04-20T04:31:04.764Z,732.93
2017-04-20T04:32:04.737Z,732.96
2017-04-20T04:33:04.713Z,733.02
2017-04-20T04:34:04.686Z,732.89
2017-04-20T04:35:04.661Z,732.89
2017-04-20T04:36:04.636Z,732.9
2017-04-20T04:37:04.608Z,732.94
2017-04-20T04:38:04.583Z,732.9
2017-04-20T04:39:04.556Z,732.86
2017-04-20T04:40:04.531Z,732.95
2017-04-20T04:41:04.506Z,732.91
2017-04-20T04:42:04.479Z,732.91
2017-04-20T04:43:04.453Z,732.94
2017-04-20T04:44:04.427Z,732.89
2017-04-20T04:45:04.401Z,732.96
2017-04-20T04:46:04.376Z,732.96
2017-04-20T04:47:04.349Z,732.97
2017-04-20T04:48:04.325Z,732.94
2017-04-20T04:49:04.298Z,733
2017-04-20T04:50:04.272Z,732.98
2017-04-20T04:51:04.247Z,732.92
2017-04-20T04:52:04.221Z,732.93
2017-04-20T04:53:04.194Z,732.97
2017-04-20T04:54:04.168Z,732.94
2017-04-20T04:55:04.144Z,732.95
2017-04-20T04:56:04.118Z,732.92
2017-04-20T04:57:04.092Z,732.91
2017-04-20T04:58:04.067Z,732.97
2017-04-20T04:59:04.040Z,732.87
2017-04-20T05:00:04.016Z,732.95
2017-04-20T05:01:03.990Z,732.97
2017-04-20T05:02:03.963Z,732.99
2017-04-20T05:03:03.938Z,732.97
2017-04-20T05:04:03.913Z,732.95
2017-04-20T05:05:03.887Z,733.04
2017-04-20T05:06:03.861Z,732.94
2017-04-20T05:07:03.835Z,732.96
2017-04-20T05:08:03.809Z,733.03
2017-04-20T05:09:03.784Z,733.07
2017-04-20T05:10:03.758Z,732.96
2017-04-20T05:11:03.733Z,733.01
2017-04-20T05:12:03.706Z,733.11
2017-04-20T05:13:03.679Z,733.02
2017-04-20T05:14:03.655Z,733.08
2017-04-20T05:15:03.628Z,733.18
2017-04-20T05:16:03.601Z,733.13
2017-04-20T05:17:03.576Z,733.02
2017-04-20T05:18:03.550Z,733.08
2017-04-20T05:19:03.523Z,733.15
2017-04-20T05:20:03.498Z,733.05
2017-04-20T05:21:03.472Z,733.14
2017-04-20T05:22:03.446Z,733.16
2017-04-20T05:23:03.421Z,733.16
2017-04-20T05:24:03.394Z,733.06
2017-04-20T05:25:03.366Z,733.18
2017-04-20T05:26:03.342Z,733.13
2017-04-20T05:27:03.315Z,733.07
2017-04-20T05:28:03.290Z,733.15
2017-04-20T05:29:03.264Z,733.13
2017-04-20T05:30:03.237Z,733.15
2017-04-20T05:31:03.212Z,733.21
2017-04-20T05:32:03.186Z,733.26
2017-04-20T05:33:03.160Z,733.12
2017-04-20T05:34:03.133Z,733.16
2017-04-20T05:35:03.109Z,733.28
2017-04-20T05:36:03.085Z,733.22
2017-04-20T05:37:03.056Z,733.18
2017-04-20T05:38:03.031Z,733.31
2017-04-20T05:39:03.006Z,733.32
2017-04-20T05:40:02.979Z,733.18
2017-04-20T05:41:02.954Z,733.15
2017-04-20T05:42:02.929Z,733.26
2017-04-20T05:43:02.903Z,733.13
2017-04-20T05:44:02.876Z,733.19
2017-04-20T05:45:02.852Z,733.29
2017-04-20T05:46:02.826Z,733.29
2017-04-20T05:47:02.798Z,733.34
2017-04-20T05:48:02.773Z,733.16
2017-04-20T05:49:02.746Z,733.26
2017-04-20T05:50:02.721Z,733.28
2017-04-20T05:51:02.695Z,733.25
2017-04-20T05:52:02.669Z,733.26
2017-04-20T05:53:02.644Z,733.31
2017-04-20T05:54:02.618Z,733.24
2017-04-20T05:55:02.593Z,733.26
2017-04-20T05:56:02.570Z,733.29
2017-04-20T05:57:02.541Z,733.33
2017-04-20T05:58:02.516Z,733.3
2017-04-20T05:59:02.489Z,733.31
2017-04-20T06:00:02.465Z,733.41
2017-04-20T06:01:02.439Z,733.36
2017-04-20T06:02:02.414Z,733.22
2017-04-20T06:03:02.390Z,733.43
2017-04-20T06:04:02.364Z,733.31
2017-04-20T06:05:02.339Z,733.34
2017-04-20T06:06:02.313Z,733.4
2017-04-20T06:07:02.289Z,733.3
2017-04-20T06:08:02.264Z,733.39
2017-04-20T06:09:02.240Z,733.37
2017-04-20T06:10:02.216Z,733.35
2017-04-20T06:11:02.191Z,733.4
2017-04-20T06:12:02.167Z,733.28
2017-04-20T06:13:02.141Z,733.38
2017-04-20T06:14:02.117Z,733.32
2017-04-20T06:15:02.092Z,733.34
2017-04-20T06:16:02.065Z,733.43
2017-04-20T06:17:02.040Z,733.33
2017-04-20T06:18:02.015Z,733.44
2017-04-20T06:19:01.991Z,733.48
2017-04-20T06:20:01.964Z,733.47
2017-04-20T06:21:01.939Z,733.53
2017-04-20T06:22:01.914Z,733.45
2017-04-20T06:23:01.889Z,733.53
2017-04-20T06:24:01.862Z,733.63
2017-04-20T06:25:01.837Z,733.57
2017-04-20T06:26:01.811Z,733.54
2017-04-20T06:27:01.785Z,733.57
2017-04-20T06:28:01.758Z,733.56
2017-04-20T06:29:01.733Z,733.5
2017-04-20T06:30:01.709Z,733.64
2017-04-20T06:31:01.681Z,733.56
2017-04-20T06:32:01.656Z,733.63
2017-04-20T06:33:01.629Z,733.63
2017-04-20T06:34:01.605Z,733.64
2017-04-20T06:35:01.579Z,733.65
2017-04-20T06:36:01.553Z,733.66
2017-04-20T06:37:01.526Z,733.6
2017-04-20T06:38:01.502Z,733.66
2017-04-20T06:39:01.475Z,733.64
2017-04-20T06:40:01.448Z,733.62
2017-04-20T06:41:01.423Z,733.64
2017-04-20T06:42:01.396Z,733.68
2017-04-20T06:43:01.369Z,733.71
2017-04-20T06:44:01.343Z,733.66
2017-04-20T06:45:01.318Z,733.72
2017-04-20T06:46:01.293Z,733.74
2017-04-20T06:47:01.266Z,733.79
2017-04-20T06:48:01.242Z,733.8
2017-04-20T06:49:01.216Z,733.74
2017-04-20T06:50:01.191Z,733.77
2017-04-20T06:51:01.163Z,733.8
2017-04-20T06:52:01.139Z,733.81
2017-04-20T06:53:01.112Z,733.81
2017-04-20T06:54:01.087Z,733.8
2017-04-20T06:55:01.063Z,733.76
2017-04-20T06:56:01.036Z,733.82
2017-04-20T06:57:01.010Z,733.85
2017-04-20T06:58:00.985Z,733.76
2017-04-20T06:59:00.960Z,733.75
2017-04-20T07:00:00.935Z,733.76
2017-04-20T07:01:00.910Z,733.84
2017-04-20T07:02:00.885Z,733.85
2017-04-20T07:03:00.860Z,733.84
2017-04-20T07:04:00.833Z,733.86
2017-04-20T07:05:00.808Z,733.92
2017-04-20T07:06:00.784Z,733.84
2017-04-20T07:07:00.759Z,733.91
2017-04-20T07:08:00.733Z,733.9
2017-04-20T07:09:00.708Z,733.89
2017-04-20T07:10:00.682Z,733.87
2017-04-20T07:11:00.658Z,733.89
2017-04-20T07:12:00.631Z,733.87
2017-04-20T07:13:00.605Z,733.89
2017-04-20T07:14:00.583Z,733.91
2017-04-20T07:15:00.554Z,733.94
2017-04-20T07:16:00.529Z,733.95
2017-04-20T07:17:00.504Z,733.99
2017-04-20T07:18:00.480Z,734
2017-04-20T07:19:00.452Z,734
2017-04-20T07:20:00.434Z,734.03
2017-04-20T07:21:00.402Z,734.06
2017-04-20T07:22:00.376Z,734.01
2017-04-20T07:23:00.350Z,734.03
2017-04-20T07:24:00.326Z,734
2017-04-20T07:25:00.300Z,733.93
2017-04-20T07:26:00.274Z,733.97
2017-04-20T07:27:00.249Z,733.94
2017-04-20T07:28:00.230Z,733.95
2017-04-20T07:29:00.197Z,733.99
2017-04-20T07:30:00.171Z,734
2017-04-20T07:31:00.148Z,733.98
2017-04-20T07:32:00.120Z,734.04
2017-04-20T07:33:00.096Z,734.01
2017-04-20T07:34:00.069Z,734.05
2017-04-20T07:35:00.044Z,734.03
2017-04-20T07:36:00.017Z,734.01
2017-04-20T07:36:59.991Z,734.06
2017-04-20T07:37:59.965Z,734.02
2017-04-20T07:38:59.940Z,734.03
2017-04-20T07:39:59.915Z,734.08
2017-04-20T07:40:59.888Z,734.07
2017-04-20T07:41:59.864Z,734.14
2017-04-20T07:42:59.838Z,734.08
2017-04-20T07:43:59.812Z,734.15
2017-04-20T07:44:59.786Z,734.2
2017-04-20T07:45:59.762Z,734.12
2017-04-20T07:46:59.735Z,734.17
2017-04-20T07:47:59.708Z,734.2
2017-04-20T07:48:59.683Z,734.19
2017-04-20T07:49:59.658Z,734.16
2017-04-20T07:50:59.632Z,734.23
2017-04-20T07:51:59.607Z,734.17
2017-04-20T07:52:59.581Z,734.25
2017-04-20T07:53:59.555Z,734.22
2017-04-20T07:54:59.532Z,734.1
2017-04-20T07:55:59.506Z,734.11
2017-04-20T07:56:59.482Z,734.11
2017-04-20T07:57:59.458Z,734.1
2017-04-20T07:58:59.431Z,734.16
2017-04-20T07:59:59.407Z,734.24
2017-04-20T08:00:59.384Z,734.23
2017-04-20T08:01:59.360Z,734.21
2017-04-20T08:02:59.335Z,734.22
2017-04-20T08:03:59.313Z,734.24
2017-04-20T08:04:59.290Z,734.25
2017-04-20T08:05:59.265Z,734.29
2017-04-20T08:06:59.242Z,734.32
2017-04-20T08:07:59.220Z,734.33
2017-04-20T08:08:59.196Z,734.37
2017-04-20T08:09:59.173Z,734.42
2017-04-20T08:10:59.150Z,734.32
2017-04-20T08:11:59.128Z,734.31
2017-04-20T08:12:59.106Z,734.3
2017-04-20T08:13:59.081Z,734.4
2017-04-20T08:14:59.059Z,734.42
2017-04-20T08:15:59.036Z,734.46
2017-04-20T08:16:59.013Z,734.43
2017-04-20T08:17:58.991Z,734.44
2017-04-20T08:18:58.970Z,734.5
2017-04-20T08:19:58.947Z,734.49
2017-04-20T08:20:58.925Z,734.47
2017-04-20T08:21:58.905Z,734.46
2017-04-20T08:22:58.883Z,734.49
2017-04-20T08:23:58.861Z,734.48
2017-04-20T08:24:58.839Z,734.45
2017-04-20T08:25:58.818Z,734.36
2017-04-20T08:26:58.798Z,734.44
2017-04-20T08:27:58.775Z,734.46
2017-04-20T08:28:58.755Z,734.53
2017-04-20T08:29:58.735Z,734.51
2017-04-20T08:30:58.714Z,734.52
2017-04-20T08:31:58.695Z,734.52
2017-04-20T08:32:58.675Z,734.54
2017-04-20T08:33:58.655Z,734.55
2017-04-20T08:34:58.636Z,734.52
2017-04-20T08:35:58.616Z,734.5
2017-04-20T08:36:58.598Z,734.5
2017-04-20T08:37:58.577Z,734.56
2017-04-20T08:38:58.557Z,734.56
2017-04-20T08:39:58.539Z,734.55
2017-04-20T08:40:58.521Z,734.55
2017-04-20T08:41:58.500Z,734.56
2017-04-20T08:42:58.481Z,734.55
2017-04-20T08:43:58.463Z,734.61
2017-04-20T08:44:58.444Z,734.54
2017-04-20T08:45:58.425Z,734.57
2017-04-20T08:46:58.406Z,734.59
2017-04-20T08:47:58.388Z,734.6
2017-04-20T08:48:58.368Z,734.59
2017-04-20T08:49:58.350Z,734.62
2017-04-20T08:50:58.331Z,734.62
2017-04-20T08:51:58.315Z,734.64
2017-04-20T08:52:58.298Z,734.67
2017-04-20T08:53:58.279Z,734.63
2017-04-20T08:54:58.262Z,734.65
2017-04-20T08:55:58.245Z,734.72
2017-04-20T08:56:58.227Z,734.77
2017-04-20T08:57:58.208Z,734.67
2017-04-20T08:58:58.190Z,734.62
2017-04-20T08:59:58.174Z,734.72
2017-04-20T09:00:58.154Z,734.75
2017-04-20T09:01:58.139Z,734.77
2017-04-20T09:02:58.121Z,734.75
2017-04-20T09:03:58.102Z,734.82
2017-04-20T09:04:58.084Z,734.88
2017-04-20T09:05:58.065Z,734.81
2017-04-20T09:06:58.048Z,734.72
2017-04-20T09:07:58.033Z,734.85
2017-04-20T09:08:58.011Z,734.88
2017-04-20T09:09:57.993Z,734.88
2017-04-20T09:10:57.976Z,734.85
2017-04-20T09:11:57.956Z,734.87
2017-04-20T09:12:57.939Z,734.8
2017-04-20T09:13:57.919Z,734.84
2017-04-20T09:14:57.902Z,734.92
2017-04-20T09:15:57.884Z,734.99
2017-04-20T09:16:57.864Z,734.88
2017-04-20T09:17:57.845Z,734.89
2017-04-20T09:18:57.828Z,734.94
2017-04-20T09:19:57.810Z,734.94
2017-04-20T09:20:57.792Z,734.97
2017-04-20T09:21:57.773Z,735.06
2017-04-20T09:22:57.754Z,734.96
2017-04-20T09:23:57.735Z,734.92
2017-04-20T09:24:57.717Z,734.9
2017-04-20T09:25:57.697Z,734.94
2017-04-20T09:26:57.679Z,734.84
2017-04-20T09:27:57.660Z,734.89
2017-04-20T09:28:57.643Z,734.86
2017-04-20T09:29:57.624Z,734.89
2017-04-20T09:30:57.605Z,734.94
2017-04-20T09:31:57.590Z,734.91
2017-04-20T09:32:57.572Z,734.98
2017-04-20T09:33:57.553Z,734.87
2017-04-20T09:34:57.536Z,734.99
2017-04-20T09:35:57.519Z,734.96
2017-04-20T09:36:57.501Z,735.06
2017-04-20T09:37:57.483Z,734.98
2017-04-20T09:38:57.467Z,734.99
2017-04-20T09:39:57.451Z,734.9
2017-04-20T09:40:57.433Z,734.87
2017-04-20T09:41:57.417Z,734.93
2017-04-20T09:42:57.401Z,735.03
2017-04-20T09:43:57.384Z,734.91
2017-04-20T09:44:57.366Z,734.96
2017-04-20T09:45:57.351Z,734.98
2017-04-20T09:46:57.335Z,735.1
2017-04-20T09:47:57.321Z,735.01
2017-04-20T09:48:57.303Z,735.11
2017-04-20T09:49:57.288Z,735.07
2017-04-20T09:50:57.272Z,735.06
2017-04-20T09:51:57.255Z,735.13
2017-04-20T09:52:57.238Z,735.15
2017-04-20T09:53:57.222Z,735.09
2017-04-20T09:54:57.206Z,735.13
2017-04-20T09:55:57.187Z,735.08
2017-04-20T09:56:57.170Z,735.12
2017-04-20T09:57:57.154Z,735.15
2017-04-20T09:58:57.137Z,735.15
2017-04-20T09:59:57.120Z,735.15
2017-04-20T10:00:57.102Z,735.1
2017-04-20T10:01:57.085Z,735.07
2017-04-20T10:02:57.068Z,735.18
2017-04-20T10:03:57.051Z,735.15
2017-04-20T10:04:57.032Z,735.14
2017-04-20T10:05:57.017Z,735.14
2017-04-20T10:06:56.998Z,735.21
2017-04-20T10:07:56.981Z,735.21
2017-04-20T10:08:56.964Z,735.28
2017-04-20T10:09:56.947Z,735.28
2017-04-20T10:10:56.929Z,735.23
2017-04-20T10:11:56.912Z,735.17
2017-04-20T10:12:56.894Z,735.21
2017-04-20T10:13:56.878Z,735.19
2017-04-20T10:14:56.862Z,735.22
2017-04-20T10:15:56.845Z,735.21
2017-04-20T10:16:56.827Z,735.2
2017-04-20T10:17:56.809Z,735.27
2017-04-20T10:18:56.792Z,735.36
2017-04-20T10:19:56.777Z,735.29
2017-04-20T10:20:56.760Z,735.3
2017-04-20T10:21:56.743Z,735.3
2017-04-20T10:22:56.727Z,735.26
2017-04-20T10:23:56.709Z,735.24
2017-04-20T10:24:56.692Z,735.31
2017-04-20T10:25:56.676Z,735.25
2017-04-20T10:26:56.661Z,735.31
2017-04-20T10:27:56.644Z,735.27
2017-04-20T10:28:56.629Z,735.33
2017-04-20T10:29:56.615Z,735.33
2017-04-20T10:30:56.599Z,735.4
2017-04-20T10:31:56.587Z,735.36
2017-04-20T10:32:56.570Z,735.37
2017-04-20T10:33:56.555Z,735.32
2017-04-20T10:34:56.541Z,735.27
2017-04-20T10:35:56.527Z,735.32
2017-04-20T10:36:56.513Z,735.36
2017-04-20T10:37:56.498Z,735.32
2017-04-20T10:38:56.485Z,735.26
2017-04-20T10:39:56.470Z,735.33
2017-04-20T10:40:56.457Z,735.39
2017-04-20T10:41:56.452Z,735.44
2017-04-20T10:42:56.428Z,735.42
2017-04-20T10:43:56.411Z,735.42
2017-04-20T10:44:56.398Z,735.35
2017-04-20T10:45:56.383Z,735.47
2017-04-20T10:46:56.368Z,735.43
2017-04-20T10:47:56.351Z,735.4
2017-04-20T10:48:56.340Z,735.41
2017-04-20T10:49:56.323Z,735.42
2017-04-20T10:50:56.304Z,735.52
2017-04-20T10:51:56.289Z,735.5
2017-04-20T10:52:56.273Z,735.48
2017-04-20T10:53:56.258Z,735.56
2017-04-20T10:54:56.242Z,735.53
2017-04-20T10:55:56.225Z,735.49
2017-04-20T10:56:56.209Z,735.53
2017-04-20T10:57:56.194Z,735.51
2017-04-20T10:58:56.177Z,735.47
2017-04-20T10:59:56.161Z,735.48
2017-04-20T11:00:56.146Z,735.47
2017-04-20T11:01:56.127Z,735.52
2017-04-20T11:02:56.110Z,735.48
2017-04-20T11:03:56.094Z,735.46
2017-04-20T11:04:56.079Z,735.49
2017-04-20T11:05:56.058Z,735.44
2017-04-20T11:06:56.041Z,735.47
2017-04-20T11:07:56.025Z,735.47
2017-04-20T11:08:56.008Z,735.46
2017-04-20T11:09:55.991Z,735.45
2017-04-20T11:10:55.974Z,735.44
2017-04-20T11:11:55.957Z,735.41
2017-04-20T11:12:55.939Z,735.46
2017-04-20T11:13:55.923Z,735.42
2017-04-20T11:14:55.906Z,735.49
2017-04-20T11:15:55.889Z,735.49
2017-04-20T11:16:55.872Z,735.43
2017-04-20T11:17:55.856Z,735.49
2017-04-20T11:18:55.839Z,735.45
2017-04-20T11:19:55.822Z,735.46
2017-04-20T11:20:55.805Z,735.44
2017-04-20T11:21:55.788Z,735.52
2017-04-20T11:22:55.771Z,735.51
2017-04-20T11:23:55.755Z,735.51
2017-04-20T11:24:55.736Z,735.52
2017-04-20T11:25:55.722Z,735.57
2017-04-20T11:26:55.705Z,735.64
2017-04-20T11:27:55.688Z,735.66
2017-04-20T11:28:55.670Z,735.67
2017-04-20T11:29:55.654Z,735.55
2017-04-20T11:30:55.637Z,735.55
2017-04-20T11:31:55.621Z,735.64
2017-04-20T11:32:55.604Z,735.61
2017-04-20T11:33:55.587Z,735.62
2017-04-20T11:34:55.569Z,735.63
2017-04-20T11:35:55.553Z,735.66
2017-04-20T11:36:55.538Z,735.56
2017-04-20T11:37:55.520Z,735.6
2017-04-20T11:38:55.504Z,735.63
2017-04-20T11:39:55.487Z,735.67
2017-04-20T11:40:55.471Z,735.61
2017-04-20T11:41:55.454Z,735.63
2017-04-20T11:42:55.438Z,735.64
2017-04-20T11:43:55.422Z,735.76
2017-04-20T11:44:55.404Z,735.62
2017-04-20T11:45:55.386Z,735.63
2017-04-20T11:46:55.370Z,735.65
2017-04-20T11:47:55.353Z,735.71
2017-04-20T11:48:55.335Z,735.71
2017-04-20T11:49:55.317Z,735.75
2017-04-20T11:50:55.300Z,735.64
2017-04-20T11:51:55.285Z,735.73
2017-04-20T11:52:55.262Z,735.79
2017-04-20T11:53:55.245Z,735.75
2017-04-20T11:54:55.226Z,735.7
2017-04-20T11:55:55.209Z,735.62
2017-04-20T11:56:55.190Z,735.77
2017-04-20T11:57:55.174Z,735.84
2017-04-20T11:58:55.155Z,735.82
2017-04-20T11:59:55.135Z,735.85
2017-04-20T12:00:55.117Z,735.85
2017-04-20T12:01:55.098Z,735.81
2017-04-20T12:02:55.081Z,735.87
2017-04-20T12:03:55.062Z,735.93
2017-04-20T12:04:55.043Z,735.83
2017-04-20T12:05:55.025Z,735.85
2017-04-20T12:06:55.006Z,735.79
2017-04-20T12:07:54.987Z,735.79
2017-04-20T12:08:54.968Z,735.66
2017-04-20T12:09:54.952Z,735.72
2017-04-20T12:10:54.931Z,735.81
2017-04-20T12:11:54.914Z,735.76
2017-04-20T12:12:54.896Z,735.74
2017-04-20T12:13:54.879Z,735.87
2017-04-20T12:14:54.863Z,735.79
2017-04-20T12:15:54.841Z,735.8
2017-04-20T12:16:54.824Z,735.82
2017-04-20T12:17:54.807Z,735.85
2017-04-20T12:18:54.790Z,735.8
2017-04-20T12:19:54.773Z,735.85
2017-04-20T12:20:54.755Z,735.92
2017-04-20T12:21:54.737Z,735.84
2017-04-20T12:22:54.721Z,735.85
2017-04-20T12:23:54.702Z,735.88
2017-04-20T12:24:54.685Z,736
2017-04-20T12:25:54.666Z,735.93
2017-04-20T12:26:54.648Z,735.94
2017-04-20T12:27:54.630Z,735.91
2017-04-20T12:28:54.612Z,735.88
2017-04-20T12:29:54.594Z,735.89
2017-04-20T12:30:54.577Z,735.93